Time;durP1;ratioP1;P1;durP2;ratioP2;P2;SDS_P1;SDS_P2;PMS_P1;PMS_P2;Temp;Humidity;BMP_temperature;BMP_pressure;BME280_temperature;BME280_humidity;BME280_pressure;Samples;Min_cycle;Max_cycle;Signal;HPM_P1;HPM_P2
2021/06/12 00:01:29;;;;;;;21.15;16.83;;;19.60;99.90;;;;;;4994115;28;20084;-62
2021/06/12 00:03:55;;;;;;;22.20;16.90;;;19.60;99.90;;;;;;4994928;28;20124;-62
2021/06/12 00:06:22;;;;;;;19.90;16.70;;;19.60;99.90;;;;;;4996160;28;20041;-62
2021/06/12 00:08:48;;;;;;;21.83;18.08;;;19.50;99.90;;;;;;4994746;28;20089;-62
2021/06/12 00:11:15;;;;;;;21.77;17.13;;;19.40;99.90;;;;;;4993272;28;20050;-62
2021/06/12 00:13:41;;;;;;;18.75;15.43;;;19.30;99.90;;;;;;4995640;28;20053;-62
2021/06/12 00:16:08;;;;;;;21.58;16.20;;;19.30;99.90;;;;;;4995407;28;20050;-62
2021/06/12 00:18:36;;;;;;;20.55;17.08;;;19.20;99.90;;;;;;4996088;28;20697;-62
2021/06/12 00:21:03;;;;;;;19.85;17.30;;;19.20;99.90;;;;;;4995123;28;20084;-62
2021/06/12 00:23:29;;;;;;;25.40;17.30;;;19.20;99.90;;;;;;4995741;28;20045;-62
2021/06/12 00:25:56;;;;;;;20.05;16.50;;;19.20;99.90;;;;;;4995035;28;21351;-62
2021/06/12 00:28:22;;;;;;;20.30;18.10;;;19.20;99.90;;;;;;4994246;28;20077;-62
2021/06/12 00:30:49;;;;;;;21.05;18.77;;;19.10;99.90;;;;;;4995731;28;20069;-62
2021/06/12 00:33:16;;;;;;;23.65;18.73;;;19.10;99.90;;;;;;4995222;28;20585;-62
2021/06/12 00:35:44;;;;;;;24.20;19.30;;;19.00;99.90;;;;;;4995689;28;20072;-62
2021/06/12 00:38:10;;;;;;;25.85;19.55;;;18.90;99.90;;;;;;4995982;28;20053;-65
2021/06/12 00:40:37;;;;;;;27.67;20.25;;;18.90;99.90;;;;;;4995080;28;20139;-65
2021/06/12 00:43:04;;;;;;;23.70;18.27;;;18.90;99.90;;;;;;4994884;28;20116;-64
2021/06/12 00:45:32;;;;;;;23.55;20.52;;;18.80;99.90;;;;;;4995083;28;20518;-64
2021/06/12 00:47:59;;;;;;;21.63;18.75;;;18.80;99.90;;;;;;4994980;28;20139;-64
2021/06/12 00:50:28;;;;;;;21.83;18.58;;;18.80;99.90;;;;;;4994879;28;20529;-64
2021/06/12 00:52:56;;;;;;;24.42;19.27;;;18.70;99.90;;;;;;4994867;28;20069;-64
2021/06/12 00:55:23;;;;;;;24.35;19.73;;;18.50;99.90;;;;;;4994799;28;20160;-64
2021/06/12 01:00:25;;;;;;;24.52;20.23;;;18.50;99.90;;;;;;4995372;28;20050;-64
2021/06/12 01:02:52;;;;;;;26.15;20.38;;;18.50;99.90;;;;;;4995694;28;20079;-65
2021/06/12 01:05:21;;;;;;;21.92;19.55;;;18.60;99.90;;;;;;4995302;28;20069;-62
2021/06/12 01:07:47;;;;;;;25.90;20.15;;;18.50;99.90;;;;;;4994130;28;20049;-65
2021/06/12 01:10:17;;;;;;;25.20;21.15;;;18.50;99.90;;;;;;4993858;28;20046;-65
2021/06/12 01:12:54;;;;;;;28.05;20.20;;;18.50;99.90;;;;;;4996008;28;20080;-65
2021/06/12 01:15:23;;;;;;;27.05;19.52;;;18.40;99.90;;;;;;4995672;28;20060;-64
2021/06/12 01:17:53;;;;;;;24.35;19.88;;;18.40;99.90;;;;;;4994909;28;20457;-65
2021/06/12 01:20:57;;;;;;;24.38;21.00;;;18.40;99.90;;;;;;4993749;28;20186;-65
2021/06/12 01:23:58;;;;;;;27.15;20.98;;;18.40;99.90;;;;;;4994796;28;20498;-65
2021/06/12 01:26:45;;;;;;;22.10;19.65;;;18.40;99.90;;;;;;4987799;28;20053;-65
2021/06/12 01:29:21;;;;;;;24.10;20.10;;;18.50;99.90;;;;;;4994490;28;20087;-65
2021/06/12 01:31:51;;;;;;;26.52;21.33;;;18.40;99.90;;;;;;4993277;28;20087;-65
2021/06/12 01:34:20;;;;;;;23.08;19.10;;;18.40;99.90;;;;;;4993978;28;20080;-65
2021/06/12 01:36:48;;;;;;;22.00;18.67;;;18.30;99.90;;;;;;4995009;28;20421;-65
2021/06/12 01:39:19;;;;;;;22.88;19.65;;;18.30;99.90;;;;;;4994184;28;20056;-65
2021/06/12 01:41:47;;;;;;;25.73;20.73;;;18.30;99.90;;;;;;4994313;28;20164;-65
2021/06/12 01:44:14;;;;;;;26.02;19.63;;;18.30;99.90;;;;;;4993324;28;20501;-64
2021/06/12 01:46:41;;;;;;;23.30;18.55;;;18.30;99.90;;;;;;4993351;28;20510;-65
2021/06/12 01:49:09;;;;;;;25.38;21.23;;;18.40;99.90;;;;;;4994545;28;20086;-65
2021/06/12 01:51:36;;;;;;;24.90;21.80;;;18.30;99.90;;;;;;4992401;28;20140;-65
2021/06/12 01:54:03;;;;;;;25.10;21.90;;;18.30;99.90;;;;;;4993899;28;20045;-65
2021/06/12 01:56:31;;;;;;;26.58;22.20;;;18.30;99.90;;;;;;4994110;28;20077;-65
2021/06/12 01:58:59;;;;;;;27.98;22.50;;;18.10;99.90;;;;;;4993183;28;20087;-65
2021/06/12 02:01:26;;;;;;;27.08;23.05;;;18.20;99.90;;;;;;4992478;28;20068;-65
2021/06/12 02:03:55;;;;;;;29.23;22.95;;;18.20;99.90;;;;;;4993775;28;20056;-65
2021/06/12 02:06:23;;;;;;;27.65;21.55;;;18.10;99.90;;;;;;4994390;28;21590;-64
2021/06/12 02:08:52;;;;;;;23.23;19.63;;;18.00;99.90;;;;;;4994587;28;20060;-64
2021/06/12 02:11:20;;;;;;;25.42;20.38;;;17.90;99.90;;;;;;4993159;28;20041;-64
2021/06/12 02:13:48;;;;;;;25.40;21.50;;;17.90;99.90;;;;;;4993961;28;20425;-65
2021/06/12 02:16:15;;;;;;;25.17;21.45;;;17.90;99.90;;;;;;4993472;28;20087;-65
2021/06/12 02:18:46;;;;;;;24.48;21.23;;;17.90;99.90;;;;;;4994339;28;20068;-65
2021/06/12 02:21:15;;;;;;;29.40;21.95;;;17.90;99.90;;;;;;4992393;28;20045;-65
2021/06/12 02:23:43;;;;;;;27.50;21.80;;;17.90;99.90;;;;;;4995602;28;20080;-65
2021/06/12 02:26:13;;;;;;;27.00;22.00;;;17.80;99.90;;;;;;4993533;28;20053;-65
2021/06/12 02:28:39;;;;;;;27.75;23.33;;;17.80;99.90;;;;;;4995491;28;21207;-65
2021/06/12 02:31:08;;;;;;;27.27;23.38;;;17.80;99.90;;;;;;4992172;28;20053;-65
2021/06/12 02:33:36;;;;;;;26.58;22.90;;;17.70;99.90;;;;;;4997572;28;20526;-65
2021/06/12 02:36:04;;;;;;;31.88;23.55;;;17.60;99.90;;;;;;4997957;28;21122;-65
2021/06/12 02:38:31;;;;;;;29.08;22.58;;;17.60;99.90;;;;;;4998990;28;20049;-65
2021/06/12 02:40:59;;;;;;;30.05;23.33;;;17.70;99.90;;;;;;4998518;28;20049;-65
2021/06/12 02:43:26;;;;;;;31.48;25.50;;;17.70;99.90;;;;;;4999992;28;20049;-65
2021/06/12 02:45:53;;;;;;;28.88;22.85;;;17.60;99.90;;;;;;4998994;28;20060;-65
2021/06/12 02:48:22;;;;;;;31.13;24.73;;;17.60;99.90;;;;;;4999076;28;20056;-65
2021/06/12 02:50:50;;;;;;;27.42;22.33;;;17.60;99.90;;;;;;4999016;28;20054;-65
2021/06/12 02:53:22;;;;;;;28.27;21.65;;;17.60;99.90;;;;;;5000009;28;20052;-65
2021/06/12 02:55:50;;;;;;;23.85;19.92;;;17.50;99.90;;;;;;5000332;28;20049;-65
2021/06/12 02:58:22;;;;;;;24.40;20.95;;;17.50;99.90;;;;;;5000529;28;20203;-65
2021/06/12 03:00:50;;;;;;;24.30;20.70;;;17.60;99.90;;;;;;5000566;28;20788;-65
2021/06/12 03:03:17;;;;;;;25.33;20.52;;;17.50;99.90;;;;;;5001207;28;20635;-65
2021/06/12 03:05:47;;;;;;;22.20;19.80;;;17.50;99.90;;;;;;5001183;28;21585;-65
2021/06/12 03:08:15;;;;;;;26.90;20.25;;;17.50;99.90;;;;;;5000608;28;20049;-65
2021/06/12 03:10:43;;;;;;;27.50;22.77;;;17.40;99.90;;;;;;4997971;28;20463;-65
2021/06/12 03:13:19;;;;;;;27.13;22.88;;;17.40;99.90;;;;;;5001078;28;20720;-65
2021/06/12 03:15:48;;;;;;;30.30;26.38;;;17.40;99.90;;;;;;4999137;28;20115;-65
2021/06/12 03:18:15;;;;;;;27.50;22.55;;;17.30;99.90;;;;;;4998388;28;20041;-65
2021/06/12 03:20:43;;;;;;;26.77;22.88;;;17.30;99.90;;;;;;4997821;28;20073;-65
2021/06/12 03:23:10;;;;;;;31.52;26.10;;;17.30;99.90;;;;;;4998149;28;20049;-65
2021/06/12 03:25:37;;;;;;;29.60;25.10;;;17.40;99.90;;;;;;4998373;28;20053;-65
2021/06/12 03:28:05;;;;;;;30.02;23.67;;;17.40;99.90;;;;;;4997514;28;20499;-65
2021/06/12 03:30:33;;;;;;;29.08;22.58;;;17.40;99.90;;;;;;4997572;28;20041;-65
2021/06/12 03:33:02;;;;;;;23.83;20.58;;;17.40;99.90;;;;;;4997665;28;20048;-64
2021/06/12 03:35:29;;;;;;;27.23;22.77;;;17.40;99.90;;;;;;4998887;28;20042;-65
2021/06/12 03:37:59;;;;;;;29.35;24.63;;;17.50;99.90;;;;;;4997913;28;20057;-65
2021/06/12 03:40:26;;;;;;;31.45;23.65;;;17.50;99.90;;;;;;4996613;28;20238;-65
2021/06/12 03:42:53;;;;;;;25.45;22.17;;;17.60;99.90;;;;;;4996715;28;20463;-65
2021/06/12 03:45:22;;;;;;;26.02;22.52;;;17.50;99.90;;;;;;4998312;28;20051;-65
2021/06/12 03:47:50;;;;;;;29.80;23.38;;;17.50;99.90;;;;;;4997516;28;20077;-64
2021/06/12 03:50:18;;;;;;;29.30;23.00;;;17.40;99.90;;;;;;4994384;28;20076;-64
2021/06/12 03:52:46;;;;;;;28.05;22.20;;;17.40;99.90;;;;;;4997661;28;20053;-64
2021/06/12 03:55:12;;;;;;;25.83;20.98;;;17.40;99.90;;;;;;4997109;28;20085;-64
2021/06/12 03:57:39;;;;;;;24.02;20.30;;;17.50;99.90;;;;;;4997126;28;20667;-64
2021/06/12 04:00:08;;;;;;;25.15;19.95;;;17.60;99.90;;;;;;4995573;28;20108;-64
2021/06/12 04:02:34;;;;;;;25.38;18.92;;;17.60;99.90;;;;;;4997199;28;20089;-64
2021/06/12 04:05:03;;;;;;;23.27;19.50;;;17.70;99.90;;;;;;4996818;28;20049;-64
2021/06/12 04:07:30;;;;;;;23.40;19.45;;;17.80;99.90;;;;;;4997638;28;20076;-64
2021/06/12 04:09:56;;;;;;;23.85;19.85;;;17.80;99.90;;;;;;4995736;28;20053;-64
2021/06/12 04:12:23;;;;;;;23.20;19.42;;;17.80;99.90;;;;;;4995350;28;21645;-65
2021/06/12 04:14:49;;;;;;;26.55;20.45;;;18.00;99.90;;;;;;4996768;28;20056;-64
2021/06/12 04:17:16;;;;;;;27.13;20.08;;;17.90;99.90;;;;;;4995218;28;20524;-65
2021/06/12 04:19:43;;;;;;;22.30;19.45;;;17.80;99.90;;;;;;4995497;28;20060;-64
2021/06/12 04:22:11;;;;;;;24.52;19.90;;;17.90;99.90;;;;;;4995439;28;20103;-64
2021/06/12 04:24:37;;;;;;;22.35;19.95;;;17.90;99.90;;;;;;4996680;28;20472;-65
2021/06/12 04:27:05;;;;;;;21.52;18.35;;;18.00;99.90;;;;;;4996056;28;20584;-64
2021/06/12 04:29:32;;;;;;;26.05;18.70;;;18.00;99.90;;;;;;4995767;28;20045;-64
2021/06/12 04:31:58;;;;;;;24.67;19.40;;;17.90;99.90;;;;;;4993947;28;20053;-64
2021/06/12 04:34:25;;;;;;;21.25;17.65;;;18.10;99.90;;;;;;4996021;28;20130;-64
2021/06/12 04:36:51;;;;;;;22.70;18.67;;;18.10;99.90;;;;;;4995051;28;20518;-64
2021/06/12 04:39:19;;;;;;;22.40;18.52;;;18.20;99.90;;;;;;4995868;28;20800;-64
2021/06/12 04:41:46;;;;;;;23.33;19.35;;;18.30;99.90;;;;;;4993648;28;20417;-65
2021/06/12 04:44:13;;;;;;;21.33;17.05;;;18.40;99.90;;;;;;4995799;28;20072;-64
2021/06/12 04:46:40;;;;;;;25.65;19.45;;;18.40;99.90;;;;;;4995023;28;20080;-64
2021/06/12 04:49:07;;;;;;;21.45;18.50;;;18.40;99.90;;;;;;4995153;28;20057;-64
2021/06/12 04:51:33;;;;;;;23.42;17.38;;;18.50;99.90;;;;;;4994094;28;20057;-64
2021/06/12 04:54:00;;;;;;;23.70;18.27;;;18.50;99.90;;;;;;4998558;28;20441;-64
2021/06/12 04:56:28;;;;;;;21.10;18.35;;;18.50;99.90;;;;;;4996996;28;20042;-64
2021/06/12 04:58:54;;;;;;;23.38;17.75;;;18.50;99.90;;;;;;4997860;28;20092;-64
2021/06/12 05:01:21;;;;;;;20.60;17.95;;;18.60;99.90;;;;;;4996416;28;20080;-64
2021/06/12 05:03:47;;;;;;;24.60;18.80;;;18.70;99.90;;;;;;4996917;28;20061;-64
2021/06/12 05:06:14;;;;;;;22.23;18.98;;;18.60;99.90;;;;;;4997097;28;20510;-64
2021/06/12 05:08:40;;;;;;;21.95;17.83;;;18.70;99.90;;;;;;4997731;28;20049;-64
2021/06/12 05:11:07;;;;;;;20.38;17.52;;;18.80;99.90;;;;;;4996031;28;21175;-64
2021/06/12 05:13:35;;;;;;;21.60;17.33;;;19.00;99.90;;;;;;4997494;28;20053;-64
2021/06/12 05:16:02;;;;;;;20.60;17.52;;;19.00;99.90;;;;;;4996607;28;20103;-65
2021/06/12 05:18:34;;;;;;;19.75;17.48;;;19.10;99.90;;;;;;4998388;28;20123;-64
2021/06/12 05:21:00;;;;;;;22.88;18.60;;;19.10;99.90;;;;;;4996036;28;20406;-64
2021/06/12 05:23:28;;;;;;;22.55;17.55;;;19.20;99.90;;;;;;4996574;28;20107;-64
2021/06/12 05:25:55;;;;;;;21.42;18.33;;;19.20;99.90;;;;;;4996585;28;20076;-65
2021/06/12 05:28:22;;;;;;;24.77;18.85;;;19.10;99.90;;;;;;4996884;28;20049;-65
2021/06/12 05:30:50;;;;;;;22.48;18.00;;;19.30;99.90;;;;;;4995336;28;20053;-65
2021/06/12 05:33:17;;;;;;;20.27;17.90;;;19.40;99.90;;;;;;4996280;28;20056;-62
2021/06/12 05:35:43;;;;;;;23.20;17.48;;;19.60;99.90;;;;;;4995762;28;20502;-65
2021/06/12 05:38:10;;;;;;;19.20;16.58;;;19.50;99.90;;;;;;4995827;28;20139;-65
2021/06/12 05:40:36;;;;;;;21.48;15.50;;;19.70;99.90;;;;;;4995135;28;20058;-65
2021/06/12 05:43:03;;;;;;;20.63;16.55;;;19.90;99.90;;;;;;4995750;28;20128;-64
2021/06/12 05:45:29;;;;;;;21.77;17.13;;;20.00;99.90;;;;;;4997019;28;20049;-65
2021/06/12 05:47:57;;;;;;;20.27;15.77;;;20.20;99.90;;;;;;4995346;28;20469;-62
2021/06/12 05:50:24;;;;;;;20.23;15.98;;;20.10;99.90;;;;;;4995074;28;20127;-62
2021/06/12 05:52:50;;;;;;;23.52;16.33;;;20.10;99.90;;;;;;4996966;28;20494;-62
2021/06/12 05:55:17;;;;;;;19.33;15.70;;;20.10;99.90;;;;;;4995429;28;20056;-62
2021/06/12 05:57:44;;;;;;;19.10;16.75;;;20.30;99.90;;;;;;4997459;28;20057;-62
2021/06/12 06:00:12;;;;;;;19.83;16.10;;;20.40;99.90;;;;;;4995412;28;20510;-62
2021/06/12 06:02:38;;;;;;;18.40;15.73;;;20.50;99.90;;;;;;4998657;28;20107;-62
2021/06/12 06:05:07;;;;;;;18.73;14.32;;;20.60;99.90;;;;;;4997866;28;20088;-62
2021/06/12 06:07:34;;;;;;;17.52;14.60;;;20.70;99.90;;;;;;4997065;28;20068;-62
2021/06/12 06:10:00;;;;;;;19.50;14.40;;;20.80;99.90;;;;;;4996382;28;20052;-62
2021/06/12 06:12:29;;;;;;;20.13;15.10;;;20.90;99.90;;;;;;4998269;28;20115;-62
2021/06/12 06:14:58;;;;;;;22.27;14.45;;;21.00;99.90;;;;;;4998588;28;20165;-62
2021/06/12 06:17:25;;;;;;;16.15;13.73;;;21.10;99.90;;;;;;5000412;28;20052;-62
2021/06/12 06:19:51;;;;;;;16.67;14.18;;;21.30;99.90;;;;;;4998119;28;20053;-62
2021/06/12 06:22:19;;;;;;;24.33;15.75;;;21.30;99.90;;;;;;4998357;28;20073;-62
2021/06/12 06:24:46;;;;;;;15.80;13.90;;;21.50;99.90;;;;;;4999306;28;20108;-62
2021/06/12 06:27:12;;;;;;;18.48;13.88;;;21.60;99.90;;;;;;4997590;28;20068;-62
2021/06/12 06:29:39;;;;;;;17.65;13.48;;;21.60;99.90;;;;;;4999381;28;20058;-62
2021/06/12 06:32:06;;;;;;;16.77;14.60;;;21.90;99.90;;;;;;4998444;28;20404;-62
2021/06/12 06:34:33;;;;;;;18.35;15.52;;;22.00;99.90;;;;;;5000185;28;20057;-62
2021/06/12 06:36:59;;;;;;;17.80;14.75;;;22.10;99.90;;;;;;4997619;28;20048;-62
2021/06/12 06:39:27;;;;;;;21.95;15.90;;;22.30;99.90;;;;;;4999495;28;20122;-62
2021/06/12 06:41:54;;;;;;;20.42;15.73;;;22.50;99.90;;;;;;4994652;28;20135;-62
2021/06/12 06:44:20;;;;;;;20.65;16.25;;;22.50;99.90;;;;;;4996954;28;20099;-62
2021/06/12 06:46:47;;;;;;;20.95;15.25;;;22.30;99.90;;;;;;4995864;28;20049;-62
2021/06/12 06:49:13;;;;;;;19.52;15.38;;;22.50;99.90;;;;;;4995963;28;21170;-62
2021/06/12 06:51:39;;;;;;;17.92;14.50;;;22.60;99.90;;;;;;4994530;28;20536;-62
2021/06/12 06:54:06;;;;;;;18.98;15.05;;;22.90;99.90;;;;;;4995721;28;20049;-64
2021/06/12 06:56:34;;;;;;;22.23;14.95;;;23.00;99.90;;;;;;4998032;28;20108;-62
2021/06/12 06:59:00;;;;;;;15.38;13.30;;;22.90;99.90;;;;;;4998719;28;20042;-62
2021/06/12 07:01:27;;;;;;;16.75;13.77;;;23.10;99.90;;;;;;4997000;28;20125;-62
2021/06/12 07:03:54;;;;;;;17.30;13.25;;;23.20;99.90;;;;;;4998958;28;20605;-62
2021/06/12 07:06:20;;;;;;;18.85;13.00;;;23.30;99.90;;;;;;5003339;28;20042;-61
2021/06/12 07:08:47;;;;;;;16.23;13.38;;;23.40;99.90;;;;;;4990156;28;20053;-62
2021/06/12 07:11:13;;;;;;;20.65;14.63;;;23.40;99.90;;;;;;4997478;28;20076;-62
2021/06/12 07:13:42;;;;;;;17.48;13.80;;;23.30;99.90;;;;;;5000014;28;20654;-62
2021/06/12 07:16:08;;;;;;;20.10;15.55;;;23.40;99.90;;;;;;4996348;28;20498;-63
2021/06/12 07:18:35;;;;;;;20.17;13.98;;;23.40;99.90;;;;;;4990755;28;20080;-64
2021/06/12 07:21:01;;;;;;;16.25;13.45;;;23.50;99.90;;;;;;5000833;28;20049;-66
2021/06/12 07:23:28;;;;;;;17.63;13.10;;;23.60;99.90;;;;;;5004198;28;20084;-64
2021/06/12 07:25:54;;;;;;;22.95;15.52;;;23.70;99.90;;;;;;5003333;28;20042;-63
2021/06/12 07:28:21;;;;;;;21.00;15.77;;;23.70;99.90;;;;;;5004288;28;20049;-66
2021/06/12 07:30:49;;;;;;;21.60;16.40;;;23.70;99.90;;;;;;5001587;28;20080;-65
2021/06/12 07:33:15;;;;;;;17.73;15.90;;;23.70;99.90;;;;;;5002803;28;20130;-63
2021/06/12 07:35:42;;;;;;;21.48;15.88;;;23.70;99.90;;;;;;5003269;28;20046;-62
2021/06/12 07:38:09;;;;;;;22.02;15.43;;;23.80;99.90;;;;;;5000621;28;20076;-62
2021/06/12 07:40:37;;;;;;;23.08;17.17;;;23.70;99.90;;;;;;5001066;28;20054;-61
2021/06/12 07:43:04;;;;;;;18.90;15.05;;;23.80;99.90;;;;;;4999225;28;20057;-61
2021/06/12 07:45:31;;;;;;;19.20;17.08;;;23.70;99.90;;;;;;5001231;28;20574;-61
2021/06/12 07:47:59;;;;;;;20.05;14.77;;;24.00;99.90;;;;;;4999003;28;20061;-63
2021/06/12 07:50:25;;;;;;;18.00;14.05;;;24.20;99.90;;;;;;4997966;28;20111;-62
2021/06/12 07:52:52;;;;;;;15.65;12.95;;;24.40;99.90;;;;;;5001019;28;20061;-64
2021/06/12 07:55:18;;;;;;;18.60;13.75;;;24.50;99.90;;;;;;5001718;28;20058;-63
2021/06/12 07:57:45;;;;;;;15.95;13.32;;;24.60;99.90;;;;;;5001183;28;20152;-64
2021/06/12 08:00:12;;;;;;;17.95;13.65;;;24.80;99.90;;;;;;5000355;28;20126;-63
2021/06/12 08:02:39;;;;;;;15.70;12.85;;;24.90;99.90;;;;;;4999958;28;20049;-63
2021/06/12 08:05:10;;;;;;;15.75;13.68;;;24.90;99.90;;;;;;5001764;28;20057;-63
2021/06/12 08:07:36;;;;;;;16.55;12.45;;;25.00;99.90;;;;;;5000568;28;20341;-63
2021/06/12 08:10:03;;;;;;;13.75;11.82;;;25.10;99.90;;;;;;4997335;28;20056;-63
2021/06/12 08:12:30;;;;;;;13.38;11.55;;;25.20;99.90;;;;;;4999953;28;20103;-62
2021/06/12 08:14:56;;;;;;;13.05;11.45;;;25.30;99.90;;;;;;4995461;28;20124;-63
2021/06/12 08:17:23;;;;;;;18.48;12.20;;;25.50;99.90;;;;;;4999129;28;20478;-64
2021/06/12 08:19:49;;;;;;;12.88;11.18;;;25.60;99.90;;;;;;4997654;28;20041;-64
2021/06/12 08:22:17;;;;;;;12.20;10.75;;;25.80;99.90;;;;;;4995412;28;20064;-63
2021/06/12 08:24:44;;;;;;;15.68;10.38;;;25.80;99.90;;;;;;4997983;28;20042;-63
2021/06/12 08:27:10;;;;;;;13.43;10.38;;;25.90;99.90;;;;;;4994814;28;20080;-62
2021/06/12 08:29:37;;;;;;;10.80;9.60;;;25.90;99.90;;;;;;5001910;28;20093;-62
2021/06/12 08:32:06;;;;;;;11.98;9.38;;;26.10;99.90;;;;;;5001868;28;20593;-62
2021/06/12 08:34:33;;;;;;;12.40;9.57;;;26.30;99.90;;;;;;5002511;28;20072;-62
2021/06/12 08:37:00;;;;;;;14.60;8.52;;;26.50;99.90;;;;;;5001205;28;20554;-62
2021/06/12 08:39:28;;;;;;;11.07;8.45;;;26.80;99.90;;;;;;5002325;28;20053;-62
2021/06/12 08:41:55;;;;;;;13.25;8.90;;;26.90;99.90;;;;;;4998541;28;20049;-62
2021/06/12 08:44:24;;;;;;;14.73;8.85;;;27.20;99.90;;;;;;5003089;28;20399;-62
2021/06/12 08:46:54;;;;;;;18.67;9.10;;;27.30;99.90;;;;;;4998840;28;20148;-62
2021/06/12 08:49:21;;;;;;;10.20;8.13;;;27.60;99.90;;;;;;4999285;28;20077;-62
2021/06/12 08:51:48;;;;;;;10.32;8.98;;;27.80;99.90;;;;;;4999861;28;20170;-62
2021/06/12 08:54:16;;;;;;;9.82;7.55;;;28.20;99.90;;;;;;4999094;28;20146;-63
2021/06/12 08:56:46;;;;;;;11.27;7.55;;;28.60;99.90;;;;;;4999001;28;20053;-62
2021/06/12 08:59:12;;;;;;;14.68;9.00;;;29.10;99.90;;;;;;5000152;28;20060;-62
2021/06/12 09:01:39;;;;;;;9.32;7.25;;;29.40;99.90;;;;;;5000591;28;20049;-62
2021/06/12 09:04:06;;;;;;;15.65;8.07;;;29.60;99.90;;;;;;5002856;28;20077;-63
2021/06/12 09:06:32;;;;;;;9.98;7.13;;;30.00;99.90;;;;;;4998753;28;20096;-63
2021/06/12 09:08:59;;;;;;;8.93;7.07;;;30.70;99.90;;;;;;4998444;28;20073;-63
2021/06/12 09:11:26;;;;;;;13.38;7.50;;;30.90;99.90;;;;;;4993112;28;20159;-62
2021/06/12 09:13:55;;;;;;;8.88;7.05;;;31.10;99.90;;;;;;4994488;28;20067;-63
2021/06/12 09:16:27;;;;;;;11.98;7.07;;;31.10;99.90;;;;;;4994322;28;20106;-62
2021/06/12 09:18:55;;;;;;;8.68;7.05;;;30.70;99.90;;;;;;4992022;28;21308;-63
2021/06/12 09:21:30;;;;;;;9.52;5.90;;;30.50;99.90;;;;;;4989376;28;20085;-62
2021/06/12 09:23:58;;;;;;;9.98;4.70;;;30.40;99.90;;;;;;4993582;28;20049;-63
2021/06/12 09:26:41;;;;;;;7.95;4.50;;;30.70;99.90;;;;;;4993671;28;20095;-62
2021/06/12 09:29:09;;;;;;;15.52;6.10;;;30.30;99.90;;;;;;4993963;28;20520;-62
2021/06/12 09:31:44;;;;;;;9.95;5.93;;;30.60;99.90;;;;;;4993952;28;20104;-63
2021/06/12 09:34:11;;;;;;;6.72;4.30;;;30.70;99.90;;;;;;4994291;28;20080;-62
2021/06/12 09:36:38;;;;;;;9.32;5.25;;;30.40;99.90;;;;;;4994572;28;20524;-63
2021/06/12 09:39:14;;;;;;;12.40;5.63;;;30.40;99.90;;;;;;4993828;28;20054;-62
2021/06/12 09:41:44;;;;;;;8.27;5.33;;;30.40;99.90;;;;;;4993625;28;20061;-62
2021/06/12 09:44:12;;;;;;;9.55;5.45;;;30.30;99.90;;;;;;4993287;28;20134;-63
2021/06/12 09:46:44;;;;;;;8.50;5.22;;;30.20;99.90;;;;;;4993128;28;20050;-63
2021/06/12 09:49:14;;;;;;;8.13;4.65;;;30.20;99.90;;;;;;4993330;28;20063;-63
2021/06/12 09:51:59;;;;;;;9.07;3.97;;;30.80;99.90;;;;;;4991814;28;20482;-63
2021/06/12 09:54:41;;;;;;;12.57;4.10;;;31.50;99.90;;;;;;4994802;28;20076;-62
2021/06/12 09:57:10;;;;;;;7.15;3.47;;;31.70;99.90;;;;;;4992534;28;20132;-63
2021/06/12 09:59:40;;;;;;;9.07;3.13;;;31.70;99.90;;;;;;4997355;28;20057;-63
2021/06/12 10:02:07;;;;;;;5.93;3.30;;;31.90;99.90;;;;;;4995186;28;20131;-63
2021/06/12 10:04:33;;;;;;;11.45;3.65;;;31.80;99.90;;;;;;4991498;28;20096;-62
2021/06/12 10:07:00;;;;;;;10.52;3.47;;;31.70;99.90;;;;;;4989448;28;20099;-62
2021/06/12 10:09:27;;;;;;;4.15;2.30;;;31.10;99.90;;;;;;4991655;28;20077;-62
2021/06/12 10:11:55;;;;;;;7.20;2.70;;;30.80;99.90;;;;;;4991934;28;21423;-62
2021/06/12 10:14:22;;;;;;;6.07;3.45;;;30.40;99.90;;;;;;4991078;28;20590;-63
2021/06/12 10:16:50;;;;;;;10.93;4.18;;;30.40;99.90;;;;;;4990541;28;20061;-63
2021/06/12 10:19:18;;;;;;;12.15;3.85;;;30.20;99.90;;;;;;4991452;28;20056;-62
2021/06/12 10:21:46;;;;;;;10.95;2.60;;;31.00;99.90;;;;;;4990580;28;20136;-63
2021/06/12 10:24:13;;;;;;;8.05;2.92;;;31.20;99.90;;;;;;4992231;28;20076;-62
2021/06/12 10:26:40;;;;;;;4.38;2.67;;;31.40;99.90;;;;;;4993379;28;20049;-62
2021/06/12 10:29:08;;;;;;;5.70;2.95;;;31.70;99.90;;;;;;4992742;28;20053;-62
2021/06/12 10:31:37;;;;;;;5.28;3.22;;;32.00;99.90;;;;;;4993886;28;20116;-63
2021/06/12 10:34:05;;;;;;;4.22;2.75;;;32.50;99.90;;;;;;4993000;28;20103;-63
2021/06/12 10:36:33;;;;;;;4.95;2.80;;;32.20;99.90;;;;;;4991742;28;20049;-63
2021/06/12 10:39:00;;;;;;;7.88;3.20;;;32.40;99.90;;;;;;4991467;28;20053;-63
2021/06/12 10:41:28;;;;;;;5.78;2.97;;;32.40;99.90;;;;;;4991632;28;20077;-63
2021/06/12 10:43:57;;;;;;;5.80;3.45;;;32.40;99.90;;;;;;4990152;28;20057;-63
2021/06/12 10:46:25;;;;;;;6.63;3.45;;;32.10;99.90;;;;;;4991036;28;20392;-63
2021/06/12 10:48:53;;;;;;;7.22;3.45;;;32.10;99.90;;;;;;4988958;28;21017;-63
2021/06/12 10:51:44;;;;;;;4.70;3.13;;;32.60;99.90;;;;;;4991028;28;20060;-63
2021/06/12 10:54:22;;;;;;;5.70;2.88;;;32.30;99.90;;;;;;4993611;28;20073;-63
2021/06/12 10:56:52;;;;;;;9.57;4.13;;;32.80;99.90;;;;;;4996365;28;20069;-63
2021/06/12 10:59:58;;;;;;;5.55;3.40;;;32.40;99.90;;;;;;4994775;28;20536;-64
2021/06/12 11:02:28;;;;;;;8.48;3.30;;;31.80;99.90;;;;;;4992035;28;20049;-63
2021/06/12 11:04:58;;;;;;;11.10;3.60;;;31.70;99.90;;;;;;4989035;28;20085;-63
2021/06/12 11:07:29;;;;;;;5.95;3.00;;;31.70;99.90;;;;;;4994456;28;20525;-62
2021/06/12 11:10:22;;;;;;;5.75;3.30;;;32.10;99.90;;;;;;4988989;28;20100;-62
2021/06/12 11:12:50;;;;;;;5.78;3.00;;;32.50;99.90;;;;;;4995441;28;20188;-63
2021/06/12 11:15:28;;;;;;;7.85;3.53;;;31.90;99.90;;;;;;4992438;28;20068;-63
2021/06/12 11:18:17;;;;;;;4.60;3.20;;;31.20;99.90;;;;;;5000943;28;20061;-63
2021/06/12 11:20:46;;;;;;;6.90;2.92;;;30.40;99.90;;;;;;5002240;28;20176;-63
2021/06/12 11:23:16;;;;;;;6.18;2.80;;;30.50;99.90;;;;;;5002160;28;20417;-62
2021/06/12 11:25:56;;;;;;;6.22;3.25;;;30.70;99.90;;;;;;5003715;28;20061;-62
2021/06/12 11:28:27;;;;;;;6.03;2.75;;;30.70;99.90;;;;;;5004195;28;20041;-62
2021/06/12 11:31:10;;;;;;;6.95;3.10;;;30.10;99.90;;;;;;5001033;28;20049;-63
2021/06/12 11:33:36;;;;;;;5.97;2.75;;;30.00;99.90;;;;;;5001355;28;20076;-63
2021/06/12 11:36:03;;;;;;;7.28;3.00;;;30.00;99.90;;;;;;5003097;28;20049;-63
2021/06/12 11:38:33;;;;;;;4.80;2.08;;;30.20;99.90;;;;;;5003889;28;20056;-63
2021/06/12 11:41:01;;;;;;;7.43;2.33;;;30.40;99.90;;;;;;4998420;28;20108;-63
2021/06/12 11:43:30;;;;;;;8.10;2.33;;;30.50;99.80;;;;;;5004302;28;21200;-63
2021/06/12 11:45:57;;;;;;;7.63;2.10;;;30.70;98.60;;;;;;5004185;28;20056;-63
2021/06/12 11:48:25;;;;;;;3.80;2.05;;;31.30;99.30;;;;;;5002509;28;20057;-63
2021/06/12 11:50:52;;;;;;;5.03;2.13;;;31.60;99.90;;;;;;5001364;28;20195;-63
2021/06/12 11:53:21;;;;;;;3.10;1.80;;;31.60;99.80;;;;;;5000652;28;20061;-63
2021/06/12 11:55:50;;;;;;;7.45;2.05;;;31.80;98.50;;;;;;5002015;28;21029;-63
2021/06/12 11:58:16;;;;;;;8.30;2.08;;;31.70;98.60;;;;;;5001117;28;20515;-63
2021/06/12 12:00:47;;;;;;;7.03;2.08;;;31.50;96.90;;;;;;4999073;28;20560;-63
2021/06/12 12:03:15;;;;;;;2.85;1.70;;;31.60;95.40;;;;;;4993999;28;20049;-63
2021/06/12 12:05:43;;;;;;;3.47;1.63;;;31.80;96.30;;;;;;4994455;28;20088;-63
2021/06/12 12:08:11;;;;;;;3.35;1.80;;;31.00;95.10;;;;;;4993986;28;20085;-63
2021/06/12 12:10:38;;;;;;;4.05;1.60;;;31.60;94.80;;;;;;4997438;28;20045;-63
2021/06/12 12:13:22;;;;;;;4.07;1.85;;;30.70;95.10;;;;;;4995187;28;20088;-63
2021/06/12 12:15:49;;;;;;;4.10;1.90;;;30.80;93.80;;;;;;4997059;28;20093;-63
2021/06/12 12:18:16;;;;;;;7.13;1.85;;;30.30;94.50;;;;;;5001803;28;20130;-63
2021/06/12 12:20:44;;;;;;;4.68;2.00;;;30.40;95.00;;;;;;5002894;28;20081;-63
2021/06/12 12:23:23;;;;;;;10.98;2.05;;;30.30;94.80;;;;;;5002759;28;20572;-63
2021/06/12 12:25:52;;;;;;;5.32;2.13;;;30.60;95.20;;;;;;5001066;28;20049;-63
2021/06/12 12:28:21;;;;;;;4.60;2.10;;;30.70;94.30;;;;;;5002314;28;20434;-63
2021/06/12 12:30:49;;;;;;;6.00;2.08;;;31.30;93.90;;;;;;5000311;28;20056;-63
2021/06/12 12:33:17;;;;;;;7.45;2.08;;;31.80;93.70;;;;;;5001407;28;20468;-63
2021/06/12 12:35:44;;;;;;;4.18;2.22;;;31.70;93.90;;;;;;5000288;28;20053;-63
2021/06/12 12:38:17;;;;;;;3.92;2.13;;;31.80;93.60;;;;;;5000065;28;20045;-63
2021/06/12 12:40:45;;;;;;;4.75;2.15;;;31.90;94.40;;;;;;4990505;28;20068;-63
2021/06/12 12:43:13;;;;;;;3.78;2.50;;;32.10;93.70;;;;;;4989282;28;21031;-63